सभी
Magowra Airport YMOA मौसम
There is no TAF data available at YMOA. Showing TAF data for YNTN (15 mi NE).
NTN Terminal Area Forecast (no data for YMOA)
| Date | Time (AEST) | Flight Rules | Wind Dir. | Speed | Type | Height AGL (ft) | Visibility | Remarks | ||||||
|---|---|---|---|---|---|---|---|---|---|---|---|---|---|---|
| 06-मई | 05:00 | VFR | 160° | 7 kt | Clouds and Visibility are OK | >= 6 miles | ||||||||
| 06-मई | 04:00 | VFR | 160° | 7 kt | Clouds and Visibility are OK | >= 6 miles | ||||||||
| 06-मई | 03:00 | VFR | 160° | 7 kt | Clouds and Visibility are OK | >= 6 miles | ||||||||
| 06-मई | 02:00 | VFR | 160° | 7 kt | Clouds and Visibility are OK | >= 6 miles | ||||||||
| 06-मई | 01:00 | VFR | 160° | 7 kt | Clouds and Visibility are OK | >= 6 miles | ||||||||
| 06-मई | 00:00 | VFR | 160° | 7 kt | Clouds and Visibility are OK | >= 6 miles | ||||||||
| 05-मई | 23:00 | VFR | 160° | 7 kt | Clouds and Visibility are OK | >= 6 miles | ||||||||
| 05-मई | 22:00 | VFR | 160° | 7 kt | Clouds and Visibility are OK | >= 6 miles | ||||||||
| 05-मई | 21:00 | VFR | 160° | 7 kt | Clouds and Visibility are OK | >= 6 miles | ||||||||
| 05-मई | 20:00 | VFR | 160° | 7 kt | Clouds and Visibility are OK | >= 6 miles | ||||||||
| 05-मई | 19:00 | VFR | 160° | 7 kt | Clouds and Visibility are OK | >= 6 miles | ||||||||
There is no METAR data available at YMOA. Showing METAR data for YNTN (15 mi NE).
Recent NTN METAR history (no data for YMOA)
| Date | Time (AEST) | Flight Rules | Wind Dir. | Speed | Type | Height AGL (ft) | Visibility | Temp (°C) | Temp (°F) | Dew Point (°C) | Dew Point (°F) | Rel. Humid. | Pressure | Density Altitude | Remarks |
|---|---|---|---|---|---|---|---|---|---|---|---|---|---|---|---|
| 05-मई | 19:00 | VFR | 180° | 6 kt | 10000 meters | 27° | 80° | 18° | 64° | 58% | 1012 mb | 1,549 ft | |||
| 05-मई | 18:00 | VFR | 190° | 9 kt | 10000 meters | 29° | 84° | 18° | 64° | 52% | 1012 mb | 1,789 ft | |||
| 05-मई | 17:00 | VFR | 190° | 10 kt | 10000 meters | 31° | 87° | 18° | 64° | 46% | 1011 mb | 2,058 ft | |||
| 05-मई | 16:00 | VFR | 190° | 9 kt | 10000 meters | 31° | 87° | 18° | 64° | 46% | 1011 mb | 2,058 ft | |||
| 05-मई | 15:00 | VFR | 170° | 7 kt | 10000 meters | 31° | 87° | 18° | 64° | 46% | 1011 mb | 2,058 ft | |||
| 05-मई | 14:00 | VFR | 150° | 6 kt | 10000 meters | 30° | 86° | 18° | 64° | 49% | 1011 mb | 1,938 ft | |||
| 05-मई | 13:00 | VFR | 170° | 8 kt | 10000 meters | 30° | 86° | 18° | 64° | 49% | 1012 mb | 1,909 ft | |||
| 05-मई | 12:00 | VFR | 170° | 10 kt | 10000 meters | 29° | 84° | 18° | 64° | 52% | 1013 mb | 1,759 ft | |||
| 05-मई | 11:00 | VFR | 160° | 10 kt | 10000 meters | 27° | 80° | 17° | 62° | 54% | 1015 mb | 1,460 ft | |||
| 05-मई | 10:00 | VFR | 160° | 14 kt | 10000 meters | 26° | 78° | 17° | 62° | 58% | 1015 mb | 1,340 ft | |||
| 05-मई | 09:00 | VFR | 160° | 15 kt | 10000 meters | 24° | 75° | 16° | 60° | 61% | 1015 mb | 1,100 ft | |||
| 05-मई | 08:00 | VFR | 160° | 12 kt | 10000 meters | 23° | 73° | 15° | 59° | 61% | 1014 mb | 1,010 ft | |||
| 05-मई | 07:00 | VFR | 150° | 11 kt | 10000 meters | 22° | 71° | 15° | 59° | 65% | 1014 mb | 890 ft | |||
| 05-मई | 06:00 | VFR | 160° | 12 kt | 10000 meters | 22° | 71° | 15° | 59° | 65% | 1013 mb | 919 ft | |||
| 05-मई | 05:00 | VFR | 170° | 14 kt | 10000 meters | 23° | 73° | 15° | 59° | 61% | 1013 mb | 1,039 ft | |||
| 05-मई | 04:00 | VFR | 170° | 14 kt | 10000 meters | 24° | 75° | 15° | 59° | 57% | 1013 mb | 1,159 ft | |||
| 05-मई | 03:00 | VFR | 180° | 11 kt | 10000 meters | 23° | 73° | 14° | 57° | 57% | 1013 mb | 1,039 ft | |||
| 05-मई | 02:00 | VFR | 180° | 13 kt | 10000 meters | 24° | 75° | 14° | 57° | 54% | 1013 mb | 1,159 ft | |||
| 05-मई | 01:00 | VFR | 190° | 15 kt | 10000 meters | 25° | 77° | 14° | 57° | 50% | 1014 mb | 1,250 ft | |||
| 05-मई | 00:00 | VFR | 190° | 13 kt | 10000 meters | 26° | 78° | 16° | 60° | 54% | 1013 mb | 1,399 ft | |||
| 04-मई | 23:00 | VFR | 190° | 7 kt | 10000 meters | 27° | 80° | 17° | 62° | 54% | 1013 mb | 1,519 ft | |||
| 04-मई | 22:00 | VFR | 190° | 6 kt | 10000 meters | 26° | 78° | 17° | 62° | 58% | 1013 mb | 1,399 ft | |||
| 04-मई | 21:00 | VFR | 180° | 6 kt | 10000 meters | 27° | 80° | 17° | 62° | 54% | 1013 mb | 1,519 ft | |||
| 04-मई | 20:00 | VFR | 170° | 5 kt | 10000 meters | 28° | 82° | 17° | 62° | 51% | 1012 mb | 1,669 ft |
लॉगिन
| Your browser is unsupported. अपना ब्राऊजर अपग्रेड करें |
